createdAt,value
2023-04-12T05:18:48.447Z,100.00
2023-04-12T05:19:52.185Z,100.00
2023-04-12T05:20:55.038Z,100.00
2023-04-12T05:21:58.310Z,100.00
2023-04-12T05:23:01.275Z,100.00
2023-04-12T05:24:04.299Z,100.00
2023-04-12T05:25:08.942Z,100.00
2023-04-12T05:26:16.197Z,100.00
2023-04-12T05:27:22.399Z,100.00
2023-04-12T05:28:25.831Z,100.00
2023-04-12T05:29:29.334Z,100.00
2023-04-12T05:30:32.656Z,100.00
2023-04-12T05:31:36.604Z,100.00
2023-04-12T05:32:41.614Z,100.00
2023-04-12T05:33:45.216Z,100.00
2023-04-12T05:34:49.122Z,100.00
2023-04-12T05:35:52.753Z,100.00
2023-04-12T05:36:55.732Z,100.00
2023-04-12T05:37:59.174Z,100.00
2023-04-12T05:39:02.114Z,100.00
2023-04-12T05:40:09.917Z,100.00
2023-04-12T05:41:13.325Z,100.00
2023-04-12T05:42:16.656Z,100.00
2023-04-12T05:43:20.037Z,100.00
2023-04-12T05:44:23.039Z,100.00
2023-04-12T05:45:26.328Z,100.00
2023-04-12T05:46:29.400Z,100.00
2023-04-12T05:47:32.398Z,100.00
2023-04-12T05:48:35.322Z,100.00
2023-04-12T05:49:38.422Z,100.00
2023-04-12T05:50:51.652Z,100.00
2023-04-12T05:51:54.593Z,100.00
2023-04-12T05:53:00.533Z,100.00
2023-04-12T05:54:08.278Z,100.00
2023-04-12T05:55:12.185Z,100.00
2023-04-12T05:56:17.558Z,100.00
2023-04-12T05:57:21.039Z,100.00
2023-04-12T05:58:24.783Z,100.00
2023-04-12T05:59:29.655Z,100.00
2023-04-12T06:00:33.252Z,100.00
2023-04-12T06:01:36.347Z,100.00
2023-04-12T06:02:40.269Z,100.00
2023-04-12T06:03:43.737Z,100.00
2023-04-12T06:04:51.132Z,100.00
2023-04-12T06:05:56.066Z,100.00
2023-04-12T06:07:00.671Z,100.00
2023-04-12T06:08:05.421Z,100.00
2023-04-12T06:09:10.020Z,100.00
2023-04-12T06:10:14.907Z,100.00
2023-04-12T06:11:17.954Z,100.00
2023-04-12T06:12:20.884Z,100.00
2023-04-12T06:13:24.134Z,100.00
2023-04-12T06:14:27.106Z,99.96
2023-04-12T06:15:32.099Z,99.90
2023-04-12T06:16:35.074Z,100.00
2023-04-12T06:17:38.977Z,100.00
2023-04-12T06:18:42.154Z,100.00
2023-04-12T06:19:45.303Z,99.98
2023-04-12T06:20:48.252Z,99.83
2023-04-12T06:21:51.690Z,99.61
2023-04-12T06:22:56.014Z,99.63
2023-04-12T06:23:59.028Z,100.00
2023-04-12T06:25:01.985Z,100.00
2023-04-12T06:26:05.764Z,99.91
2023-04-12T06:27:09.246Z,98.90
2023-04-12T06:28:12.122Z,98.42
2023-04-12T06:29:20.832Z,99.57
2023-04-12T06:30:23.736Z,99.70
2023-04-12T06:31:29.810Z,99.59
2023-04-12T06:32:32.955Z,99.73
2023-04-12T06:33:37.025Z,99.56
2023-04-12T06:34:44.199Z,99.06
2023-04-12T06:35:50.649Z,98.97
2023-04-12T06:36:53.581Z,98.39
2023-04-12T06:37:56.419Z,98.98
2023-04-12T06:38:59.449Z,98.93
2023-04-12T06:40:02.423Z,98.68
2023-04-12T06:41:05.997Z,99.40
2023-04-12T06:42:08.813Z,99.26
2023-04-12T06:43:19.156Z,98.69
2023-04-12T06:44:22.021Z,99.13
2023-04-12T06:45:24.884Z,99.17
2023-04-12T06:46:28.906Z,99.13
2023-04-12T06:47:32.713Z,98.67
2023-04-12T06:48:35.699Z,97.31
2023-04-12T06:49:39.214Z,97.26
2023-04-12T06:50:41.987Z,98.01
2023-04-12T06:51:44.995Z,98.48
2023-04-12T06:52:48.831Z,98.71
2023-04-12T06:53:51.660Z,98.71
2023-04-12T06:54:57.036Z,97.98
2023-04-12T06:56:04.117Z,98.16
2023-04-12T06:57:13.285Z,97.94
2023-04-12T06:58:16.173Z,98.27
2023-04-12T06:59:18.984Z,98.16
2023-04-12T07:00:22.502Z,97.83
2023-04-12T07:01:25.590Z,97.58
2023-04-12T07:02:28.581Z,97.28
2023-04-12T07:03:33.438Z,96.82
2023-04-12T07:04:36.671Z,96.15
2023-04-12T07:05:39.947Z,96.38
2023-04-12T07:06:42.937Z,96.58
2023-04-12T07:07:45.907Z,96.28
2023-04-12T07:08:49.618Z,95.89
2023-04-12T07:09:53.154Z,96.30
2023-04-12T07:10:56.161Z,96.98
2023-04-12T07:12:01.150Z,97.30
2023-04-12T07:13:07.204Z,96.96
2023-04-12T07:14:09.977Z,96.94
2023-04-12T07:15:12.762Z,96.54
2023-04-12T07:16:15.739Z,97.10
2023-04-12T07:17:19.099Z,96.10
2023-04-12T07:18:22.140Z,96.34
2023-04-12T07:19:25.063Z,96.34
2023-04-12T07:20:27.887Z,95.93
2023-04-12T07:21:30.778Z,95.88
2023-04-12T07:22:33.820Z,95.28
2023-04-12T07:23:36.799Z,94.27
2023-04-12T07:24:39.796Z,94.92
2023-04-12T07:25:42.666Z,95.25
2023-04-12T07:26:45.538Z,95.57
2023-04-12T07:27:49.903Z,96.37
2023-04-12T07:28:54.916Z,96.37
2023-04-12T07:29:58.861Z,95.95
2023-04-12T07:31:04.759Z,94.92
2023-04-12T07:32:10.894Z,95.19
2023-04-12T07:33:19.702Z,95.00
2023-04-12T07:34:24.331Z,95.05
2023-04-12T07:35:27.417Z,95.25
2023-04-12T07:36:31.357Z,95.53
2023-04-12T07:37:34.228Z,95.95
2023-04-12T07:38:37.048Z,95.86
2023-04-12T07:39:41.016Z,95.81
2023-04-12T07:40:44.030Z,97.17
2023-04-12T07:41:48.400Z,96.99
2023-04-12T07:42:51.225Z,96.68
2023-04-12T07:43:54.084Z,96.81
2023-04-12T07:44:56.973Z,95.93
2023-04-12T07:45:59.898Z,96.08
2023-04-12T07:47:02.746Z,95.80
2023-04-12T07:48:06.819Z,95.76
2023-04-12T07:49:10.734Z,95.31
2023-04-12T07:50:13.974Z,95.38
2023-04-12T07:51:16.789Z,95.47
2023-04-12T07:52:19.593Z,95.83
2023-04-12T07:53:26.248Z,94.80
2023-04-12T07:54:29.272Z,94.64
2023-04-12T07:55:32.060Z,94.26
2023-04-12T07:56:36.173Z,94.27
2023-04-12T07:57:38.990Z,94.72
2023-04-12T07:58:41.825Z,94.14
2023-04-12T07:59:44.725Z,94.35
2023-04-12T08:00:48.445Z,94.89
2023-04-12T08:01:52.592Z,95.32
2023-04-12T08:02:57.071Z,95.01
2023-04-12T08:04:00.558Z,95.59
2023-04-12T08:05:04.773Z,96.15
2023-04-12T08:06:08.624Z,95.84
2023-04-12T08:07:11.706Z,94.70
2023-04-12T08:08:14.597Z,94.82
2023-04-12T08:09:17.391Z,94.09
2023-04-12T08:10:20.399Z,94.52
2023-04-12T08:11:23.300Z,95.77
2023-04-12T08:12:26.231Z,95.61
2023-04-12T08:13:29.026Z,94.39
2023-04-12T08:14:31.869Z,94.35
2023-04-12T08:15:34.914Z,94.43
2023-04-12T08:16:37.863Z,95.21
2023-04-12T08:17:43.919Z,94.82
2023-04-12T08:18:46.926Z,94.00
2023-04-12T08:19:49.963Z,94.07
2023-04-12T08:20:53.311Z,94.26
2023-04-12T08:21:56.830Z,93.88
2023-04-12T08:22:59.913Z,93.22
2023-04-12T08:24:03.084Z,93.49
2023-04-12T08:25:06.819Z,93.35
2023-04-12T08:26:09.980Z,94.17
2023-04-12T08:27:13.956Z,93.16
2023-04-12T08:28:17.026Z,92.31
2023-04-12T08:29:19.925Z,92.39
2023-04-12T08:30:27.031Z,92.28
2023-04-12T08:31:30.389Z,92.82
2023-04-12T08:32:50.857Z,92.58
2023-04-12T08:33:53.910Z,93.00
2023-04-12T08:34:56.879Z,92.37
2023-04-12T08:36:00.256Z,91.00
2023-04-12T08:37:03.336Z,90.59
2023-04-12T08:38:07.968Z,90.80
2023-04-12T08:39:11.224Z,91.07
2023-04-12T08:40:14.485Z,91.07
2023-04-12T08:41:18.383Z,90.31
2023-04-12T08:42:22.230Z,87.45
2023-04-12T08:43:29.142Z,87.62
2023-04-12T08:44:37.033Z,87.30
2023-04-12T08:45:40.004Z,87.60
2023-04-12T08:46:44.169Z,88.04
2023-04-12T08:47:47.166Z,88.69
2023-04-12T08:48:54.231Z,88.62
2023-04-12T08:49:57.395Z,89.12
2023-04-12T08:51:00.600Z,90.23
2023-04-12T08:52:08.384Z,90.61
2023-04-12T08:53:11.860Z,90.45
2023-04-12T08:54:16.009Z,90.40
2023-04-12T08:55:18.926Z,90.19
2023-04-12T08:56:23.511Z,90.45
2023-04-12T08:57:27.071Z,89.64
2023-04-12T08:58:31.308Z,90.29
2023-04-12T08:59:39.263Z,90.18
2023-04-12T09:00:42.954Z,87.85
2023-04-12T09:01:46.174Z,86.52
2023-04-12T09:02:49.708Z,87.37
2023-04-12T09:03:52.861Z,87.84
2023-04-12T09:04:56.165Z,88.85
2023-04-12T09:06:03.344Z,88.12
2023-04-12T09:07:07.039Z,86.96
2023-04-12T09:08:10.271Z,88.94
2023-04-12T09:09:13.171Z,89.29
2023-04-12T09:10:35.220Z,89.12
2023-04-12T09:11:38.947Z,89.76
2023-04-12T09:12:47.906Z,89.97
2023-04-12T09:13:51.383Z,88.74
2023-04-12T09:15:12.839Z,89.66
2023-04-12T09:16:17.227Z,87.97
2023-04-12T09:17:27.903Z,88.32
2023-04-12T09:18:30.990Z,88.43
2023-04-12T09:19:36.071Z,89.26
2023-04-12T09:20:39.324Z,88.07
2023-04-12T09:21:57.778Z,88.20
2023-04-12T09:23:02.790Z,88.13
2023-04-12T09:24:14.852Z,89.17
2023-04-12T09:25:18.524Z,88.83
2023-04-12T09:26:31.632Z,88.48
2023-04-12T09:27:52.558Z,87.04
2023-04-12T09:28:55.440Z,87.81
2023-04-12T09:30:10.760Z,88.05
2023-04-12T09:31:19.370Z,87.75
2023-04-12T09:32:27.505Z,86.09
2023-04-12T09:33:48.531Z,86.15
2023-04-12T09:35:00.564Z,87.33
2023-04-12T09:36:13.536Z,88.72
2023-04-12T09:37:17.195Z,88.50
2023-04-12T09:38:20.582Z,89.24
2023-04-12T09:39:42.210Z,89.14
2023-04-12T09:40:45.199Z,89.21
2023-04-12T09:41:48.221Z,86.45
2023-04-12T09:42:56.261Z,86.10
2023-04-12T09:44:00.503Z,85.68
2023-04-12T09:45:24.398Z,85.81
2023-04-12T09:46:27.868Z,85.53
2023-04-12T09:47:39.638Z,85.19
2023-04-12T09:48:50.284Z,85.20
2023-04-12T09:49:53.252Z,85.12
2023-04-12T09:51:00.293Z,84.98
2023-04-12T09:52:03.658Z,85.43
2023-04-12T09:53:17.280Z,85.66
2023-04-12T09:54:20.962Z,87.68
2023-04-12T09:55:25.834Z,88.40
2023-04-12T09:56:32.375Z,88.63
2023-04-12T09:57:39.857Z,88.79
2023-04-12T09:58:44.681Z,88.11
2023-04-12T09:59:51.551Z,87.59
2023-04-12T10:00:57.011Z,87.09
2023-04-12T10:02:00.701Z,86.10
2023-04-12T10:03:05.231Z,84.53
2023-04-12T10:04:09.981Z,84.76
2023-04-12T10:05:16.173Z,85.17
2023-04-12T10:06:20.572Z,86.47
2023-04-12T10:07:23.739Z,86.44
2023-04-12T10:08:27.170Z,87.04
2023-04-12T10:09:30.211Z,86.52
2023-04-12T10:10:33.509Z,86.08
2023-04-12T10:11:40.606Z,86.01
2023-04-12T10:12:46.535Z,84.36
2023-04-12T10:13:52.288Z,84.40
2023-04-12T10:14:55.474Z,84.84
2023-04-12T10:16:01.084Z,85.49
2023-04-12T10:17:05.698Z,86.39
2023-04-12T10:18:11.391Z,87.34
2023-04-12T10:19:15.076Z,86.88
2023-04-12T10:20:19.593Z,87.35
2023-04-12T10:21:23.594Z,87.68
2023-04-12T10:22:27.165Z,87.11
2023-04-12T10:23:33.002Z,86.91
2023-04-12T10:24:38.648Z,86.24
2023-04-12T10:25:45.036Z,85.58
2023-04-12T10:26:50.503Z,85.77
2023-04-12T10:27:53.804Z,86.47
2023-04-12T10:29:24.512Z,86.17
2023-04-12T10:30:30.091Z,84.80
2023-04-12T10:31:34.352Z,83.91
2023-04-12T10:32:37.736Z,84.01
2023-04-12T10:33:42.938Z,83.50
2023-04-12T10:34:51.067Z,83.85
2023-04-12T10:36:06.925Z,83.56
2023-04-12T10:37:10.244Z,83.90
2023-04-12T10:38:13.169Z,84.18
2023-04-12T10:39:16.413Z,83.83
2023-04-12T10:40:19.661Z,84.33
2023-04-12T10:41:22.889Z,84.48
2023-04-12T10:42:29.784Z,84.56
2023-04-12T10:43:36.332Z,83.58
2023-04-12T10:44:39.860Z,82.23
2023-04-12T10:45:43.178Z,83.17
2023-04-12T10:46:46.463Z,84.43
2023-04-12T10:47:49.520Z,84.62
2023-04-12T10:48:53.884Z,83.29
2023-04-12T10:50:30.225Z,83.79
2023-04-12T10:51:37.791Z,81.87
2023-04-12T10:53:09.190Z,82.84
2023-04-12T10:54:12.472Z,81.59
2023-04-12T10:55:28.227Z,79.88
2023-04-12T10:56:34.044Z,80.35
2023-04-12T10:57:43.692Z,80.50
2023-04-12T10:58:49.797Z,80.70
2023-04-12T10:59:59.593Z,81.68
2023-04-12T11:01:11.959Z,82.00
2023-04-12T11:02:16.731Z,82.32
2023-04-12T11:03:28.980Z,83.19
2023-04-12T11:04:32.407Z,82.78
2023-04-12T11:06:12.787Z,82.45
2023-04-12T11:07:43.911Z,82.14
2023-04-12T11:10:20.029Z,81.06
2023-04-12T11:11:27.392Z,80.96
2023-04-12T11:12:31.042Z,81.44
2023-04-12T11:13:38.782Z,81.38
2023-04-12T11:14:46.746Z,82.22
2023-04-12T11:15:56.518Z,82.02
2023-04-12T11:17:06.135Z,80.84
2023-04-12T11:18:09.486Z,79.57
2023-04-12T11:19:13.166Z,78.71
2023-04-12T11:20:16.474Z,80.38
2023-04-12T11:21:20.053Z,81.28
2023-04-12T11:22:26.118Z,81.71
2023-04-12T11:23:29.584Z,80.26
2023-04-12T11:24:33.706Z,79.91
2023-04-12T11:25:37.468Z,79.73
2023-04-12T11:26:41.050Z,79.12
2023-04-12T11:27:54.912Z,79.64
2023-04-12T11:28:59.456Z,79.72
2023-04-12T11:30:03.014Z,79.58
2023-04-12T11:31:07.555Z,78.84
2023-04-12T11:32:14.159Z,79.31
2023-04-12T11:33:32.321Z,79.85
2023-04-12T11:34:36.800Z,79.97
2023-04-12T11:35:43.780Z,80.33
2023-04-12T11:36:48.171Z,79.95
2023-04-12T11:37:51.354Z,79.66
2023-04-12T11:38:57.155Z,79.39
2023-04-12T11:40:00.553Z,79.79
2023-04-12T11:41:07.112Z,79.29
2023-04-12T11:42:15.907Z,79.81
2023-04-12T11:43:20.675Z,79.19
2023-04-12T11:44:24.408Z,79.43
2023-04-12T11:45:29.455Z,79.70
2023-04-12T11:46:35.971Z,79.75
2023-04-12T11:47:43.712Z,79.70
2023-04-12T11:48:47.253Z,79.43
2023-04-12T11:49:53.285Z,79.69
2023-04-12T11:51:10.324Z,80.21
2023-04-12T11:52:16.107Z,80.29
2023-04-12T11:53:19.743Z,80.10
2023-04-12T11:54:29.787Z,79.86
2023-04-12T11:55:32.851Z,80.02
2023-04-12T11:56:37.665Z,79.74
2023-04-12T11:57:40.898Z,79.67
2023-04-12T11:58:47.913Z,79.67
2023-04-12T11:59:51.217Z,80.15
2023-04-12T12:00:57.468Z,80.01
2023-04-12T12:02:13.836Z,79.76
2023-04-12T12:03:25.588Z,79.60
2023-04-12T12:04:30.576Z,79.68
2023-04-12T12:05:37.463Z,79.98
2023-04-12T12:06:41.445Z,79.71
2023-04-12T12:07:44.676Z,80.26
2023-04-12T12:08:51.684Z,80.33
2023-04-12T12:09:55.487Z,80.30
2023-04-12T12:11:07.313Z,80.32
2023-04-12T12:12:12.812Z,80.71
2023-04-12T12:13:16.077Z,80.25
2023-04-12T12:14:23.566Z,80.46
2023-04-12T12:15:32.945Z,80.55
2023-04-12T12:16:36.431Z,80.73
2023-04-12T12:17:40.150Z,80.81
2023-04-12T12:18:44.727Z,80.62
2023-04-12T12:19:48.516Z,80.56
2023-04-12T12:20:51.660Z,80.38
2023-04-12T12:21:55.187Z,80.77
2023-04-12T12:22:58.356Z,81.09
2023-04-12T12:24:02.373Z,80.97
2023-04-12T12:25:06.887Z,80.55
2023-04-12T12:26:18.877Z,80.38
2023-04-12T12:27:24.808Z,80.94
2023-04-12T12:28:27.807Z,81.24
2023-04-12T12:29:38.352Z,81.27
2023-04-12T12:30:41.458Z,81.13
2023-04-12T12:31:50.511Z,81.49
2023-04-12T12:32:53.628Z,81.18
2023-04-12T12:33:58.544Z,81.17
2023-04-12T12:35:02.048Z,81.12
2023-04-12T12:36:06.801Z,81.00
2023-04-12T12:37:13.680Z,81.61
2023-04-12T12:38:16.578Z,81.95
2023-04-12T12:39:19.841Z,82.31
2023-04-12T12:40:32.511Z,82.40
2023-04-12T12:41:36.599Z,82.27
2023-04-12T12:42:54.783Z,81.81
2023-04-12T12:43:58.320Z,82.07
2023-04-12T12:45:04.682Z,80.38
2023-04-12T12:46:07.906Z,79.65
2023-04-12T12:47:14.332Z,79.55
2023-04-12T12:48:21.100Z,79.24
2023-04-12T12:49:24.327Z,79.19
2023-04-12T12:50:29.539Z,79.42
2023-04-12T12:51:33.301Z,77.45
2023-04-12T12:52:36.454Z,77.12
2023-04-12T12:53:40.970Z,76.98
2023-04-12T12:54:44.033Z,76.38
2023-04-12T12:55:47.392Z,75.31
2023-04-12T12:56:50.478Z,74.40
2023-04-12T12:58:07.265Z,71.56
2023-04-12T12:59:11.793Z,72.17
2023-04-12T13:00:16.407Z,71.57
2023-04-12T13:01:19.518Z,71.58
2023-04-12T13:02:22.814Z,71.62
2023-04-12T13:03:26.120Z,71.27
2023-04-12T13:04:29.952Z,71.49
2023-04-12T13:05:33.190Z,70.94
2023-04-12T13:06:36.206Z,69.76
2023-04-12T13:07:39.498Z,68.95
2023-04-12T13:08:42.879Z,66.91
2023-04-12T13:09:46.610Z,67.49
2023-04-12T13:10:50.702Z,66.68
2023-04-12T13:11:53.845Z,66.45
2023-04-12T13:12:56.827Z,65.48
2023-04-12T13:13:59.886Z,65.37
2023-04-12T13:15:20.127Z,66.01
2023-04-12T13:16:26.994Z,65.87
2023-04-12T13:17:31.613Z,66.07
2023-04-12T13:18:34.577Z,66.06
2023-04-12T13:19:38.036Z,66.55
2023-04-12T13:20:41.469Z,65.33
2023-04-12T13:21:44.579Z,65.05
2023-04-12T13:22:48.203Z,60.82
2023-04-12T13:23:51.196Z,61.21
2023-04-12T13:24:55.406Z,59.81
2023-04-12T13:25:58.318Z,61.32
2023-04-12T13:27:01.215Z,62.01
2023-04-12T13:28:04.763Z,60.48
2023-04-12T13:29:07.729Z,62.02
2023-04-12T13:30:11.663Z,61.55
2023-04-12T13:31:14.588Z,62.00
2023-04-12T13:32:18.709Z,61.22
2023-04-12T13:33:22.334Z,58.06
2023-04-12T13:34:25.995Z,58.75
2023-04-12T13:35:29.002Z,58.24
2023-04-12T13:36:32.222Z,57.02
2023-04-12T13:37:35.140Z,58.13
2023-04-12T13:38:38.494Z,56.50
2023-04-12T13:39:41.607Z,56.43
2023-04-12T13:40:44.605Z,55.72
2023-04-12T13:41:47.684Z,55.67
2023-04-12T13:42:50.696Z,54.33
2023-04-12T13:43:53.838Z,54.99
2023-04-12T13:44:57.058Z,52.93
2023-04-12T13:46:00.400Z,52.96
2023-04-12T13:47:04.704Z,51.82
2023-04-12T13:48:07.811Z,52.20
2023-04-12T13:49:11.668Z,50.53
2023-04-12T13:50:14.647Z,49.60
2023-04-12T13:51:18.156Z,50.69
2023-04-12T13:52:21.517Z,50.74
2023-04-12T13:53:24.544Z,50.92
2023-04-12T13:54:27.778Z,50.49
2023-04-12T13:55:30.888Z,51.18
2023-04-12T13:56:33.940Z,50.18
2023-04-12T13:57:37.006Z,49.18
2023-04-12T13:58:40.133Z,49.27
2023-04-12T13:59:43.279Z,48.46
2023-04-12T14:00:46.252Z,49.74
2023-04-12T14:01:49.922Z,49.80
2023-04-12T14:02:54.128Z,48.94
2023-04-12T14:03:57.205Z,47.60
2023-04-12T14:05:00.838Z,47.62
2023-04-12T14:06:03.904Z,47.30
2023-04-12T14:07:06.955Z,47.93
2023-04-12T14:08:09.867Z,47.61
2023-04-12T14:09:30.551Z,48.30
2023-04-12T14:10:33.630Z,48.50
2023-04-12T14:11:47.369Z,48.91
2023-04-12T14:12:50.452Z,49.30
2023-04-12T14:13:54.681Z,49.73
2023-04-12T14:14:57.974Z,50.08
2023-04-12T14:16:01.012Z,50.78
2023-04-12T14:17:04.096Z,50.81
2023-04-12T14:18:07.472Z,51.28
2023-04-12T14:19:10.838Z,51.29
2023-04-12T14:20:14.566Z,51.85
2023-04-12T14:21:18.770Z,52.35
2023-04-12T14:22:21.677Z,52.11
2023-04-12T14:23:26.224Z,52.46
2023-04-12T14:24:29.231Z,53.12
2023-04-12T14:25:32.333Z,53.56
2023-04-12T14:26:35.763Z,54.03
2023-04-12T14:27:38.881Z,54.49
2023-04-12T14:28:42.160Z,54.89
2023-04-12T14:29:45.360Z,55.43
2023-04-12T14:30:51.049Z,55.88
2023-04-12T14:31:54.646Z,56.06
2023-04-12T14:32:57.699Z,56.41
2023-04-12T14:34:01.187Z,56.60
2023-04-12T14:35:05.402Z,56.71
2023-04-12T14:36:09.034Z,56.39
2023-04-12T14:37:12.500Z,56.65
2023-04-12T14:38:15.385Z,56.36
2023-04-12T14:39:18.467Z,56.80
2023-04-12T14:40:21.612Z,56.62
2023-04-12T14:41:24.633Z,56.26
2023-04-12T14:42:27.685Z,56.37
2023-04-12T14:43:30.753Z,56.05
2023-04-12T14:44:33.837Z,56.18
2023-04-12T14:45:37.761Z,56.51
2023-04-12T14:46:40.770Z,55.93
2023-04-12T14:47:43.949Z,55.65
2023-04-12T14:48:47.198Z,55.16
2023-04-12T14:49:50.391Z,55.51
2023-04-12T14:50:55.631Z,55.38
2023-04-12T14:51:59.625Z,55.08
2023-04-12T14:53:02.884Z,55.21
2023-04-12T14:54:05.810Z,55.09
2023-04-12T14:55:10.686Z,55.58
2023-04-12T14:56:22.332Z,55.31
2023-04-12T14:57:27.314Z,55.08
2023-04-12T14:58:30.771Z,55.05
2023-04-12T14:59:34.107Z,55.51
2023-04-12T15:00:38.043Z,55.61
2023-04-12T15:01:41.787Z,55.48
2023-04-12T15:02:46.357Z,55.94
2023-04-12T15:03:51.935Z,56.26
2023-04-12T15:04:55.592Z,56.81
2023-04-12T15:05:59.218Z,57.33
2023-04-12T15:07:02.160Z,57.21
2023-04-12T15:08:05.146Z,57.66
2023-04-12T15:09:10.233Z,57.89
2023-04-12T15:10:16.086Z,58.41
2023-04-12T15:11:19.317Z,58.72
2023-04-12T15:12:22.196Z,58.77
2023-04-12T15:13:33.533Z,58.84
2023-04-12T15:14:38.281Z,59.32
2023-04-12T15:15:41.853Z,59.31
2023-04-12T15:16:46.473Z,59.51
2023-04-12T15:17:49.793Z,59.97
2023-04-12T15:18:52.848Z,59.96
2023-04-12T15:19:56.203Z,60.44
2023-04-12T15:21:00.323Z,60.28
2023-04-12T15:22:03.576Z,60.41
2023-04-12T15:23:06.711Z,60.83
2023-04-12T15:24:09.645Z,61.03
2023-04-12T15:25:12.614Z,61.04
2023-04-12T15:26:15.991Z,61.16
2023-04-12T15:27:19.178Z,61.59
2023-04-12T15:28:22.170Z,61.77
2023-04-12T15:29:28.205Z,61.93
2023-04-12T15:30:32.043Z,62.32
2023-04-12T15:31:35.035Z,62.53
2023-04-12T15:32:39.175Z,62.78
2023-04-12T15:33:44.408Z,62.84
2023-04-12T15:34:47.316Z,63.01
2023-04-12T15:35:50.524Z,63.33
2023-04-12T15:36:53.624Z,63.54
2023-04-12T15:37:56.636Z,63.63
2023-04-12T15:39:00.843Z,64.11
2023-04-12T15:40:13.681Z,64.46
2023-04-12T15:41:16.643Z,64.42
2023-04-12T15:42:20.781Z,64.63
2023-04-12T15:43:25.231Z,65.37
2023-04-12T15:44:32.054Z,65.45
2023-04-12T15:45:35.128Z,65.68
2023-04-12T15:46:39.366Z,66.31
2023-04-12T15:47:42.759Z,66.59
2023-04-12T15:48:45.969Z,66.15
2023-04-12T15:49:48.896Z,66.50
2023-04-12T15:50:54.678Z,66.89
2023-04-12T15:51:58.040Z,67.31
2023-04-12T15:53:01.463Z,67.36
2023-04-12T15:54:04.728Z,67.79
2023-04-12T15:55:11.675Z,68.06
2023-04-12T15:56:17.200Z,68.35
2023-04-12T15:57:20.846Z,68.36
2023-04-12T15:58:24.661Z,68.62
2023-04-12T15:59:29.458Z,69.14
2023-04-12T16:00:33.104Z,69.19
2023-04-12T16:01:36.762Z,69.42
2023-04-12T16:02:40.700Z,69.42
2023-04-12T16:03:47.312Z,69.83
2023-04-12T16:04:51.006Z,69.79
2023-04-12T16:05:54.551Z,70.07
2023-04-12T16:07:02.189Z,70.36
2023-04-12T16:08:05.235Z,70.66
2023-04-12T16:09:08.352Z,70.83
2023-04-12T16:10:11.664Z,70.63
2023-04-12T16:11:19.599Z,70.88
2023-04-12T16:12:22.542Z,70.91
2023-04-12T16:13:25.931Z,71.17
2023-04-12T16:14:29.200Z,71.25
2023-04-12T16:15:33.636Z,71.52
2023-04-12T16:16:40.584Z,71.56
2023-04-12T16:17:45.468Z,71.93
2023-04-12T16:18:49.577Z,71.96
2023-04-12T16:19:54.620Z,72.19
2023-04-12T16:20:58.526Z,72.36
2023-04-12T16:22:02.505Z,72.47
2023-04-12T16:23:06.870Z,72.55
2023-04-12T16:24:11.915Z,72.60
2023-04-12T16:25:20.152Z,72.91
2023-04-12T16:26:24.014Z,73.08
2023-04-12T16:27:29.878Z,73.16
2023-04-12T16:28:37.639Z,73.15
2023-04-12T16:29:41.896Z,73.38
2023-04-12T16:30:46.228Z,73.56
2023-04-12T16:31:51.862Z,73.54
2023-04-12T16:32:55.582Z,73.64
2023-04-12T16:33:58.990Z,73.61
2023-04-12T16:35:02.585Z,73.76
2023-04-12T16:36:06.041Z,73.84
2023-04-12T16:37:09.094Z,74.14
2023-04-12T16:38:14.761Z,73.99
2023-04-12T16:39:19.734Z,73.91
2023-04-12T16:40:24.765Z,74.16
2023-04-12T16:41:27.962Z,74.49
2023-04-12T16:42:31.938Z,74.61
2023-04-12T16:43:35.021Z,74.63
2023-04-12T16:44:38.613Z,74.77
2023-04-12T16:45:45.713Z,75.03
2023-04-12T16:46:49.057Z,75.14
2023-04-12T16:47:52.160Z,75.18
2023-04-12T16:48:55.230Z,75.12
2023-04-12T16:49:58.470Z,75.30
2023-04-12T16:51:03.810Z,75.45
2023-04-12T16:52:07.196Z,75.41
2023-04-12T16:53:11.759Z,75.41
2023-04-12T16:54:14.959Z,75.57
2023-04-12T16:55:17.810Z,75.65
2023-04-12T16:56:21.163Z,75.89
2023-04-12T16:57:24.435Z,75.77
2023-04-12T16:58:28.858Z,75.85
2023-04-12T16:59:33.260Z,76.03
2023-04-12T17:00:37.173Z,76.15
2023-04-12T17:01:40.737Z,76.04
2023-04-12T17:02:43.850Z,76.25
2023-04-12T17:03:47.684Z,76.34
2023-04-12T17:04:51.140Z,76.31
2023-04-12T17:05:54.562Z,76.26
2023-04-12T17:06:59.081Z,76.41
2023-04-12T17:08:05.645Z,76.24
2023-04-12T17:09:09.783Z,76.26
2023-04-12T17:10:13.128Z,76.60
2023-04-12T17:11:16.441Z,76.59
2023-04-12T17:12:19.837Z,76.81
2023-04-12T17:13:22.748Z,76.85
2023-04-12T17:14:29.684Z,76.79
2023-04-12T17:15:32.887Z,76.80
2023-04-12T17:16:36.226Z,76.81
2023-04-12T17:17:39.867Z,76.84
2023-04-12T17:18:43.650Z,76.73
2023-04-12T17:19:46.766Z,76.81
2023-04-12T17:20:49.918Z,76.87
2023-04-12T17:21:53.104Z,77.04
2023-04-12T17:22:57.618Z,77.21
2023-04-12T17:24:01.282Z,77.16
2023-04-12T17:25:06.931Z,77.25
2023-04-12T17:26:10.293Z,77.23
2023-04-12T17:27:13.192Z,77.46
2023-04-12T17:28:16.572Z,77.30
2023-04-12T17:29:20.466Z,77.26
2023-04-12T17:30:24.031Z,77.28
2023-04-12T17:31:29.367Z,77.43
2023-04-12T17:32:33.887Z,77.48
2023-04-12T17:33:37.827Z,77.51
2023-04-12T17:34:42.526Z,77.59
2023-04-12T17:35:46.591Z,77.65
2023-04-12T17:36:50.327Z,77.59
2023-04-12T17:37:53.560Z,77.50
2023-04-12T17:38:58.299Z,77.69
2023-04-12T17:40:03.948Z,77.63
2023-04-12T17:41:09.247Z,77.79
2023-04-12T17:42:13.097Z,77.98
2023-04-12T17:43:16.000Z,77.97
2023-04-12T17:44:19.242Z,78.06
2023-04-12T17:45:23.669Z,77.87
2023-04-12T17:46:27.543Z,78.18
2023-04-12T17:47:32.634Z,78.32
2023-04-12T17:48:37.102Z,78.42
2023-04-12T17:49:41.178Z,78.67
2023-04-12T17:50:45.407Z,78.91
2023-04-12T17:51:48.538Z,78.86
2023-04-12T17:52:51.979Z,78.96
2023-04-12T17:53:57.003Z,79.17
2023-04-12T17:55:00.310Z,79.28
2023-04-12T17:56:04.555Z,79.47
2023-04-12T17:57:07.841Z,79.24
2023-04-12T17:58:11.100Z,79.97
2023-04-12T17:59:14.316Z,79.78
2023-04-12T18:00:19.171Z,79.73
2023-04-12T18:01:22.330Z,79.81
2023-04-12T18:02:26.270Z,79.92
2023-04-12T18:03:29.839Z,80.30
2023-04-12T18:04:33.885Z,80.20
2023-04-12T18:05:37.416Z,80.37
2023-04-12T18:06:42.013Z,80.09
2023-04-12T18:07:45.291Z,80.20
2023-04-12T18:08:48.795Z,80.69
2023-04-12T18:09:52.380Z,80.22
2023-04-12T18:10:55.480Z,80.10
2023-04-12T18:11:58.443Z,80.36
2023-04-12T18:13:01.551Z,80.49
2023-04-12T18:14:07.383Z,80.71
2023-04-12T18:15:11.500Z,80.75
2023-04-12T18:16:14.483Z,80.48
2023-04-12T18:17:17.413Z,80.78
2023-04-12T18:18:20.494Z,80.55
2023-04-12T18:19:23.888Z,80.91
2023-04-12T18:20:27.621Z,80.97
2023-04-12T18:21:32.577Z,81.13
2023-04-12T18:22:35.599Z,80.83
2023-04-12T18:23:38.663Z,81.06
2023-04-12T18:24:42.487Z,81.16
2023-04-12T18:25:45.540Z,81.19
2023-04-12T18:26:49.847Z,81.10
2023-04-12T18:27:52.835Z,81.41
2023-04-12T18:28:56.538Z,81.59
2023-04-12T18:30:01.511Z,81.51
2023-04-12T18:31:04.659Z,81.51
2023-04-12T18:32:08.252Z,81.29
2023-04-12T18:33:11.545Z,81.72
2023-04-12T18:34:14.979Z,81.42
2023-04-12T18:35:18.281Z,81.46
2023-04-12T18:36:21.332Z,81.61
2023-04-12T18:37:24.461Z,81.55
2023-04-12T18:38:33.690Z,81.58
2023-04-12T18:39:37.082Z,81.23
2023-04-12T18:40:40.119Z,81.28
2023-04-12T18:41:43.092Z,81.34
2023-04-12T18:42:46.229Z,81.42
2023-04-12T18:43:49.182Z,81.42
2023-04-12T18:44:52.506Z,81.33
2023-04-12T18:45:56.125Z,81.21
2023-04-12T18:46:59.568Z,81.33
2023-04-12T18:48:04.448Z,81.50
2023-04-12T18:49:09.198Z,81.68
2023-04-12T18:50:12.476Z,81.84
2023-04-12T18:51:15.610Z,81.75
2023-04-12T18:52:18.528Z,81.86
2023-04-12T18:53:21.990Z,81.72
2023-04-12T18:54:27.774Z,81.85
2023-04-12T18:55:31.409Z,81.90
2023-04-12T18:56:34.694Z,81.86
2023-04-12T18:57:37.793Z,81.77
2023-04-12T18:58:54.454Z,81.71
2023-04-12T18:59:58.350Z,81.56
2023-04-12T19:01:01.723Z,81.37
2023-04-12T19:02:05.091Z,81.12
2023-04-12T19:03:08.338Z,80.84
2023-04-12T19:04:12.408Z,81.35
2023-04-12T19:05:15.777Z,81.13
2023-04-12T19:06:19.476Z,80.85
2023-04-12T19:07:22.874Z,80.88
2023-04-12T19:08:26.687Z,80.85
2023-04-12T19:09:29.656Z,80.80
2023-04-12T19:10:32.590Z,80.97
2023-04-12T19:11:37.193Z,80.99
2023-04-12T19:12:40.186Z,80.80